Terminal Aerodrome Forecast
Issued by NWS Newport/Morehead City, NC

Home | Current Version | Previous Version | Graphics & Text | Print | Product List | Glossary On
Versions: 1 2 3 4 5 6 7 8 9 10 11 12 13 14
391
FTUS42 KMHX 202321
TAFEWN
TAF
KEWN 202321Z 2100/2124 31008KT P6SM SKC
     FM210800 21006KT P6SM BKN070
     FM211500 24008KT P6SM BKN050=

USA.gov is the U.S. government's official web portal to all federal, state and local government web resources and services.